createdAt,value
2018-06-28T00:00:21.384Z,45.00
2018-06-28T00:02:50.117Z,44.96
2018-06-28T00:05:18.923Z,45.40
2018-06-28T00:07:47.687Z,45.95
2018-06-28T00:10:21.251Z,46.04
2018-06-28T00:13:12.739Z,46.29
2018-06-28T00:15:41.992Z,45.78
2018-06-28T00:19:46.929Z,46.11
2018-06-28T00:22:15.732Z,46.24
2018-06-28T00:24:44.455Z,46.60
2018-06-28T00:27:13.161Z,46.25
2018-06-28T00:29:56.119Z,46.91
2018-06-28T00:36:48.334Z,46.78
2018-06-28T00:39:16.975Z,47.39
2018-06-28T00:41:45.806Z,47.01
2018-06-28T00:44:14.592Z,47.34
2018-06-28T00:46:57.214Z,47.63
2018-06-28T00:57:49.303Z,48.69
2018-06-28T01:00:17.974Z,48.32
2018-06-28T01:11:49.634Z,49.84
2018-06-28T01:14:18.240Z,49.99
2018-06-28T01:16:47.082Z,50.18
2018-06-28T01:19:15.923Z,50.21
2018-06-28T01:29:30.902Z,50.77
2018-06-28T01:31:59.509Z,50.25
2018-06-28T01:34:28.149Z,49.84
2018-06-28T01:36:57.868Z,50.40
2018-06-28T01:47:48.157Z,50.01
2018-06-28T01:50:16.908Z,50.00
2018-06-28T01:52:45.485Z,49.42
2018-06-28T02:05:08.418Z,49.87
2018-06-28T02:07:37.177Z,50.00
2018-06-28T02:10:05.942Z,50.02
2018-06-28T02:22:56.919Z,49.89
2018-06-28T02:25:25.689Z,50.64
2018-06-28T02:27:54.590Z,50.21
2018-06-28T08:42:13.669Z,49.86
2018-06-28T12:30:29.949Z,40.21
2018-06-28T13:57:15.282Z,35.12
2018-06-28T13:59:45.880Z,33.98
2018-06-28T14:02:16.069Z,33.98
2018-06-28T15:24:01.780Z,31.34
2018-06-28T15:26:30.811Z,30.67
2018-06-28T15:28:59.881Z,30.14
2018-06-28T16:04:52.579Z,27.90
2018-06-28T16:07:22.084Z,27.57
2018-06-28T16:31:17.558Z,26.52
2018-06-28T16:33:50.250Z,26.43
2018-06-28T16:36:21.585Z,26.12
2018-06-28T16:38:52.055Z,26.63
2018-06-28T16:41:20.951Z,26.28
2018-06-28T16:43:49.932Z,26.68
2018-06-28T16:49:19.289Z,26.98
2018-06-28T16:52:00.822Z,27.69
2018-06-28T17:06:42.908Z,26.33
2018-06-28T17:09:16.978Z,25.64
2018-06-28T17:11:46.973Z,25.98
2018-06-28T19:04:02.051Z,25.75
2018-06-28T19:06:31.111Z,27.01
2018-06-28T19:09:00.154Z,26.91
2018-06-28T19:57:14.498Z,34.76
2018-06-28T19:59:49.039Z,35.58
2018-06-28T20:02:23.278Z,35.76
2018-06-28T20:32:23.191Z,40.92
2018-06-28T20:34:52.196Z,41.47
2018-06-28T20:37:21.143Z,42.06
2018-06-28T21:13:21.948Z,45.04
2018-06-28T21:15:50.988Z,45.58
2018-06-28T21:18:20.403Z,44.78
2018-06-28T22:12:37.538Z,44.88
2018-06-28T22:15:09.215Z,45.07
2018-06-28T22:17:38.323Z,45.23
2018-06-28T22:50:36.823Z,45.78
2018-06-28T22:53:05.849Z,45.28
2018-06-28T22:55:34.948Z,46.17
2018-06-28T23:22:46.566Z,46.72
2018-06-28T23:25:16.171Z,46.47
2018-06-28T23:27:46.031Z,46.32
